Klaber, Washington
Current Conditions -  °F | °C
As of 2:55 PM on Thursday 23 Oct 2014 (Local Time) from KCLS Reporting Station
Scattered Clouds Scattered Clouds  
Wind Chill: 57°   Ceiling: Unl
Heat Index: 57°   Visibility: 10mi
Dew Point: 50°   Wind: 5mph
Humidity: 77%   Direction: NA
Pressure: 29.87"   Gusts: NA
Location:  46.5326°N, 123.142°W
Report Text: KCLS 232155Z AUTO VRB04KT 10SM FEW042 SCT048 SCT060 14/10 A2987 RMK AO2
Loading
Personal Weather Stations






























Interactive Weather Map
Tropical Storm Tracking
New forecast layout! Learn more

10-Day Weather Forecast

Advertisements
Track Severe Weather on mobile